sensor_id;sensor_type;location;lat;lon;timestamp;P1;durP1;ratioP1;P2;durP2;ratioP2
18084;SDS011;9169;44.492;11.372;2023-07-29T00:00:15;12.50;;;4.10;;
18084;SDS011;9169;44.492;11.372;2023-07-29T00:02:43;12.23;;;3.93;;
18084;SDS011;9169;44.492;11.372;2023-07-29T00:05:12;16.77;;;4.03;;
18084;SDS011;9169;44.492;11.372;2023-07-29T00:07:41;11.30;;;3.90;;
18084;SDS011;9169;44.492;11.372;2023-07-29T00:10:09;13.83;;;4.13;;
18084;SDS011;9169;44.492;11.372;2023-07-29T00:12:39;11.70;;;4.10;;
18084;SDS011;9169;44.492;11.372;2023-07-29T00:15:08;12.20;;;4.10;;
18084;SDS011;9169;44.492;11.372;2023-07-29T00:17:37;19.00;;;5.03;;
18084;SDS011;9169;44.492;11.372;2023-07-29T00:20:06;13.30;;;4.40;;
18084;SDS011;9169;44.492;11.372;2023-07-29T00:22:35;13.17;;;4.13;;
18084;SDS011;9169;44.492;11.372;2023-07-29T00:25:05;13.57;;;4.27;;
18084;SDS011;9169;44.492;11.372;2023-07-29T00:27:34;13.00;;;3.80;;
18084;SDS011;9169;44.492;11.372;2023-07-29T00:30:04;13.60;;;4.30;;
18084;SDS011;9169;44.492;11.372;2023-07-29T00:32:35;12.00;;;3.87;;
18084;SDS011;9169;44.492;11.372;2023-07-29T00:35:05;13.80;;;4.57;;
18084;SDS011;9169;44.492;11.372;2023-07-29T00:37:36;13.87;;;4.17;;
18084;SDS011;9169;44.492;11.372;2023-07-29T00:40:07;17.40;;;4.00;;
18084;SDS011;9169;44.492;11.372;2023-07-29T00:42:42;12.87;;;3.97;;
18084;SDS011;9169;44.492;11.372;2023-07-29T00:45:12;12.83;;;3.87;;
18084;SDS011;9169;44.492;11.372;2023-07-29T00:47:41;13.70;;;4.10;;
18084;SDS011;9169;44.492;11.372;2023-07-29T00:50:11;14.63;;;3.80;;
18084;SDS011;9169;44.492;11.372;2023-07-29T00:52:40;14.07;;;4.43;;
18084;SDS011;9169;44.492;11.372;2023-07-29T00:55:09;16.60;;;3.70;;
18084;SDS011;9169;44.492;11.372;2023-07-29T00:57:38;13.90;;;4.40;;
18084;SDS011;9169;44.492;11.372;2023-07-29T01:00:07;13.93;;;3.90;;
18084;SDS011;9169;44.492;11.372;2023-07-29T01:02:38;14.87;;;4.37;;
18084;SDS011;9169;44.492;11.372;2023-07-29T01:05:07;13.87;;;4.13;;
18084;SDS011;9169;44.492;11.372;2023-07-29T01:07:38;14.50;;;4.80;;
18084;SDS011;9169;44.492;11.372;2023-07-29T01:10:14;15.07;;;4.53;;
18084;SDS011;9169;44.492;11.372;2023-07-29T01:12:51;16.03;;;4.50;;
18084;SDS011;9169;44.492;11.372;2023-07-29T01:15:26;16.90;;;4.07;;
18084;SDS011;9169;44.492;11.372;2023-07-29T01:18:02;16.50;;;4.27;;
18084;SDS011;9169;44.492;11.372;2023-07-29T01:20:36;15.20;;;3.87;;
18084;SDS011;9169;44.492;11.372;2023-07-29T01:23:08;14.97;;;3.70;;
18084;SDS011;9169;44.492;11.372;2023-07-29T01:25:38;16.87;;;4.10;;
18084;SDS011;9169;44.492;11.372;2023-07-29T01:28:07;17.23;;;4.20;;
18084;SDS011;9169;44.492;11.372;2023-07-29T01:30:37;14.27;;;4.20;;
18084;SDS011;9169;44.492;11.372;2023-07-29T01:33:09;15.13;;;4.50;;
18084;SDS011;9169;44.492;11.372;2023-07-29T01:35:45;15.20;;;4.03;;
18084;SDS011;9169;44.492;11.372;2023-07-29T01:38:17;14.73;;;4.47;;
18084;SDS011;9169;44.492;11.372;2023-07-29T01:40:49;15.90;;;5.20;;
18084;SDS011;9169;44.492;11.372;2023-07-29T01:43:19;13.90;;;3.97;;
18084;SDS011;9169;44.492;11.372;2023-07-29T01:45:52;15.30;;;3.93;;
18084;SDS011;9169;44.492;11.372;2023-07-29T01:48:21;15.63;;;3.87;;
18084;SDS011;9169;44.492;11.372;2023-07-29T01:50:50;17.20;;;3.93;;
18084;SDS011;9169;44.492;11.372;2023-07-29T01:53:19;14.10;;;4.17;;
18084;SDS011;9169;44.492;11.372;2023-07-29T01:55:49;16.50;;;5.00;;
18084;SDS011;9169;44.492;11.372;2023-07-29T01:58:18;13.87;;;3.83;;
18084;SDS011;9169;44.492;11.372;2023-07-29T02:00:47;14.23;;;3.67;;
18084;SDS011;9169;44.492;11.372;2023-07-29T02:03:16;15.70;;;4.30;;
18084;SDS011;9169;44.492;11.372;2023-07-29T02:05:44;15.07;;;4.07;;
18084;SDS011;9169;44.492;11.372;2023-07-29T02:08:13;15.90;;;5.07;;
18084;SDS011;9169;44.492;11.372;2023-07-29T02:10:42;14.40;;;3.97;;
18084;SDS011;9169;44.492;11.372;2023-07-29T02:13:13;16.70;;;5.33;;
18084;SDS011;9169;44.492;11.372;2023-07-29T02:15:41;16.50;;;4.40;;
18084;SDS011;9169;44.492;11.372;2023-07-29T02:18:10;15.57;;;4.23;;
18084;SDS011;9169;44.492;11.372;2023-07-29T02:20:39;15.97;;;4.53;;
18084;SDS011;9169;44.492;11.372;2023-07-29T02:23:12;15.20;;;4.20;;
18084;SDS011;9169;44.492;11.372;2023-07-29T02:25:41;16.80;;;4.37;;
18084;SDS011;9169;44.492;11.372;2023-07-29T02:28:09;18.40;;;4.30;;
18084;SDS011;9169;44.492;11.372;2023-07-29T02:30:41;16.37;;;4.80;;
18084;SDS011;9169;44.492;11.372;2023-07-29T02:33:11;17.97;;;4.57;;
18084;SDS011;9169;44.492;11.372;2023-07-29T02:35:39;15.80;;;3.90;;
18084;SDS011;9169;44.492;11.372;2023-07-29T02:38:08;16.63;;;4.83;;
18084;SDS011;9169;44.492;11.372;2023-07-29T02:40:37;18.53;;;3.80;;
18084;SDS011;9169;44.492;11.372;2023-07-29T02:43:06;17.10;;;4.20;;
18084;SDS011;9169;44.492;11.372;2023-07-29T02:45:34;17.20;;;3.90;;
18084;SDS011;9169;44.492;11.372;2023-07-29T02:48:04;17.83;;;4.07;;
18084;SDS011;9169;44.492;11.372;2023-07-29T02:50:34;16.23;;;4.13;;
18084;SDS011;9169;44.492;11.372;2023-07-29T02:53:02;17.53;;;4.27;;
18084;SDS011;9169;44.492;11.372;2023-07-29T02:55:31;17.37;;;4.10;;
18084;SDS011;9169;44.492;11.372;2023-07-29T02:57:59;18.17;;;4.40;;
18084;SDS011;9169;44.492;11.372;2023-07-29T03:00:30;20.07;;;4.33;;
18084;SDS011;9169;44.492;11.372;2023-07-29T03:02:59;18.23;;;4.60;;
18084;SDS011;9169;44.492;11.372;2023-07-29T03:05:29;19.17;;;4.13;;
18084;SDS011;9169;44.492;11.372;2023-07-29T03:07:58;17.50;;;4.53;;
18084;SDS011;9169;44.492;11.372;2023-07-29T03:10:27;19.60;;;4.47;;
18084;SDS011;9169;44.492;11.372;2023-07-29T03:12:55;16.33;;;4.20;;
18084;SDS011;9169;44.492;11.372;2023-07-29T03:15:24;25.10;;;6.50;;
18084;SDS011;9169;44.492;11.372;2023-07-29T03:17:53;18.23;;;4.23;;
18084;SDS011;9169;44.492;11.372;2023-07-29T03:20:21;19.13;;;4.70;;
18084;SDS011;9169;44.492;11.372;2023-07-29T03:22:51;20.67;;;5.17;;
18084;SDS011;9169;44.492;11.372;2023-07-29T03:25:20;19.57;;;4.27;;
18084;SDS011;9169;44.492;11.372;2023-07-29T03:27:49;21.33;;;5.50;;
18084;SDS011;9169;44.492;11.372;2023-07-29T03:30:19;19.47;;;4.70;;
18084;SDS011;9169;44.492;11.372;2023-07-29T03:32:49;17.90;;;4.47;;
18084;SDS011;9169;44.492;11.372;2023-07-29T03:35:18;21.40;;;4.80;;
18084;SDS011;9169;44.492;11.372;2023-07-29T03:37:47;20.00;;;4.70;;
18084;SDS011;9169;44.492;11.372;2023-07-29T03:40:17;18.50;;;4.23;;
18084;SDS011;9169;44.492;11.372;2023-07-29T03:42:46;19.30;;;4.07;;
18084;SDS011;9169;44.492;11.372;2023-07-29T03:45:14;21.00;;;5.03;;
18084;SDS011;9169;44.492;11.372;2023-07-29T03:47:43;22.13;;;4.53;;
18084;SDS011;9169;44.492;11.372;2023-07-29T03:50:12;19.70;;;4.63;;
18084;SDS011;9169;44.492;11.372;2023-07-29T03:52:41;23.70;;;3.53;;
18084;SDS011;9169;44.492;11.372;2023-07-29T03:55:09;20.73;;;5.03;;
18084;SDS011;9169;44.492;11.372;2023-07-29T03:57:39;20.20;;;4.77;;
18084;SDS011;9169;44.492;11.372;2023-07-29T04:00:08;22.40;;;6.10;;
18084;SDS011;9169;44.492;11.372;2023-07-29T04:02:46;22.07;;;5.17;;
18084;SDS011;9169;44.492;11.372;2023-07-29T04:05:14;24.73;;;5.20;;
18084;SDS011;9169;44.492;11.372;2023-07-29T04:07:43;20.80;;;5.40;;
18084;SDS011;9169;44.492;11.372;2023-07-29T04:10:12;20.57;;;4.10;;
18084;SDS011;9169;44.492;11.372;2023-07-29T04:12:43;21.20;;;5.67;;
18084;SDS011;9169;44.492;11.372;2023-07-29T04:15:11;21.57;;;4.43;;
18084;SDS011;9169;44.492;11.372;2023-07-29T04:17:40;24.03;;;4.67;;
18084;SDS011;9169;44.492;11.372;2023-07-29T04:20:09;26.90;;;6.03;;
18084;SDS011;9169;44.492;11.372;2023-07-29T04:22:38;23.03;;;5.40;;
18084;SDS011;9169;44.492;11.372;2023-07-29T04:25:07;24.07;;;6.40;;
18084;SDS011;9169;44.492;11.372;2023-07-29T04:27:36;22.10;;;6.07;;
18084;SDS011;9169;44.492;11.372;2023-07-29T04:30:07;20.17;;;5.77;;
18084;SDS011;9169;44.492;11.372;2023-07-29T04:32:36;20.07;;;4.43;;
18084;SDS011;9169;44.492;11.372;2023-07-29T04:35:07;20.37;;;5.20;;
18084;SDS011;9169;44.492;11.372;2023-07-29T04:37:36;22.00;;;4.77;;
18084;SDS011;9169;44.492;11.372;2023-07-29T04:40:05;20.90;;;5.40;;
18084;SDS011;9169;44.492;11.372;2023-07-29T04:42:34;19.90;;;4.47;;
18084;SDS011;9169;44.492;11.372;2023-07-29T04:45:04;21.20;;;4.40;;
18084;SDS011;9169;44.492;11.372;2023-07-29T04:47:35;24.50;;;5.03;;
18084;SDS011;9169;44.492;11.372;2023-07-29T04:50:04;22.10;;;4.80;;
18084;SDS011;9169;44.492;11.372;2023-07-29T04:52:34;21.60;;;5.20;;
18084;SDS011;9169;44.492;11.372;2023-07-29T04:55:03;21.07;;;5.50;;
18084;SDS011;9169;44.492;11.372;2023-07-29T04:57:32;26.03;;;6.07;;
18084;SDS011;9169;44.492;11.372;2023-07-29T05:00:01;20.70;;;5.27;;
18084;SDS011;9169;44.492;11.372;2023-07-29T05:02:32;23.40;;;6.43;;
18084;SDS011;9169;44.492;11.372;2023-07-29T05:05:00;22.13;;;5.57;;
18084;SDS011;9169;44.492;11.372;2023-07-29T05:07:29;26.33;;;6.30;;
18084;SDS011;9169;44.492;11.372;2023-07-29T05:09:57;24.07;;;6.40;;
18084;SDS011;9169;44.492;11.372;2023-07-29T05:12:26;24.27;;;7.63;;
18084;SDS011;9169;44.492;11.372;2023-07-29T05:14:56;24.80;;;5.57;;
18084;SDS011;9169;44.492;11.372;2023-07-29T05:17:24;23.93;;;8.07;;
18084;SDS011;9169;44.492;11.372;2023-07-29T05:19:55;26.50;;;7.10;;
18084;SDS011;9169;44.492;11.372;2023-07-29T05:22:24;21.70;;;7.37;;
18084;SDS011;9169;44.492;11.372;2023-07-29T05:24:52;20.27;;;5.43;;
18084;SDS011;9169;44.492;11.372;2023-07-29T05:27:21;22.03;;;6.93;;
18084;SDS011;9169;44.492;11.372;2023-07-29T05:29:49;20.77;;;5.10;;
18084;SDS011;9169;44.492;11.372;2023-07-29T05:32:18;24.50;;;7.87;;
18084;SDS011;9169;44.492;11.372;2023-07-29T05:34:47;30.57;;;15.70;;
18084;SDS011;9169;44.492;11.372;2023-07-29T05:37:17;23.83;;;9.30;;
18084;SDS011;9169;44.492;11.372;2023-07-29T05:39:46;26.20;;;5.53;;
18084;SDS011;9169;44.492;11.372;2023-07-29T05:42:15;19.40;;;5.50;;
18084;SDS011;9169;44.492;11.372;2023-07-29T05:44:44;20.47;;;6.60;;
18084;SDS011;9169;44.492;11.372;2023-07-29T05:47:12;23.33;;;10.17;;
18084;SDS011;9169;44.492;11.372;2023-07-29T05:49:41;20.50;;;6.10;;
18084;SDS011;9169;44.492;11.372;2023-07-29T05:52:10;21.07;;;6.00;;
18084;SDS011;9169;44.492;11.372;2023-07-29T05:54:40;20.50;;;6.37;;
18084;SDS011;9169;44.492;11.372;2023-07-29T05:57:09;20.20;;;5.03;;
18084;SDS011;9169;44.492;11.372;2023-07-29T05:59:39;19.33;;;4.60;;
18084;SDS011;9169;44.492;11.372;2023-07-29T06:02:08;20.30;;;4.70;;
18084;SDS011;9169;44.492;11.372;2023-07-29T06:04:36;19.50;;;6.27;;
18084;SDS011;9169;44.492;11.372;2023-07-29T06:07:07;19.10;;;6.73;;
18084;SDS011;9169;44.492;11.372;2023-07-29T06:09:36;22.63;;;8.50;;
18084;SDS011;9169;44.492;11.372;2023-07-29T06:12:07;18.93;;;5.57;;
18084;SDS011;9169;44.492;11.372;2023-07-29T06:14:36;19.43;;;5.70;;
18084;SDS011;9169;44.492;11.372;2023-07-29T06:17:05;16.97;;;5.83;;
18084;SDS011;9169;44.492;11.372;2023-07-29T06:19:34;23.33;;;5.60;;
18084;SDS011;9169;44.492;11.372;2023-07-29T06:22:02;16.57;;;4.77;;
18084;SDS011;9169;44.492;11.372;2023-07-29T06:24:32;19.63;;;6.10;;
18084;SDS011;9169;44.492;11.372;2023-07-29T06:27:00;17.00;;;4.20;;
18084;SDS011;9169;44.492;11.372;2023-07-29T06:29:31;18.00;;;4.97;;
18084;SDS011;9169;44.492;11.372;2023-07-29T06:32:00;16.07;;;4.43;;
18084;SDS011;9169;44.492;11.372;2023-07-29T06:34:28;16.37;;;5.00;;
18084;SDS011;9169;44.492;11.372;2023-07-29T06:36:57;17.60;;;6.83;;
18084;SDS011;9169;44.492;11.372;2023-07-29T06:39:26;18.73;;;5.70;;
18084;SDS011;9169;44.492;11.372;2023-07-29T06:41:54;18.30;;;4.80;;
18084;SDS011;9169;44.492;11.372;2023-07-29T06:44:23;14.00;;;3.80;;
18084;SDS011;9169;44.492;11.372;2023-07-29T06:46:53;14.87;;;4.67;;
18084;SDS011;9169;44.492;11.372;2023-07-29T06:49:21;13.90;;;4.70;;
18084;SDS011;9169;44.492;11.372;2023-07-29T06:51:50;15.43;;;4.50;;
18084;SDS011;9169;44.492;11.372;2023-07-29T06:54:18;15.97;;;5.27;;
18084;SDS011;9169;44.492;11.372;2023-07-29T06:56:51;13.53;;;4.10;;
18084;SDS011;9169;44.492;11.372;2023-07-29T06:59:20;15.10;;;6.17;;
18084;SDS011;9169;44.492;11.372;2023-07-29T07:01:52;14.27;;;4.90;;
18084;SDS011;9169;44.492;11.372;2023-07-29T07:04:21;15.20;;;5.07;;
18084;SDS011;9169;44.492;11.372;2023-07-29T07:06:49;13.93;;;4.80;;
18084;SDS011;9169;44.492;11.372;2023-07-29T07:09:18;15.73;;;4.87;;
18084;SDS011;9169;44.492;11.372;2023-07-29T07:11:47;14.50;;;4.00;;
18084;SDS011;9169;44.492;11.372;2023-07-29T07:14:16;12.53;;;4.03;;
18084;SDS011;9169;44.492;11.372;2023-07-29T07:16:44;15.00;;;5.10;;
18084;SDS011;9169;44.492;11.372;2023-07-29T07:19:15;18.60;;;5.67;;
18084;SDS011;9169;44.492;11.372;2023-07-29T07:21:43;13.90;;;4.83;;
18084;SDS011;9169;44.492;11.372;2023-07-29T07:24:12;12.37;;;4.57;;
18084;SDS011;9169;44.492;11.372;2023-07-29T07:26:41;13.70;;;4.70;;
18084;SDS011;9169;44.492;11.372;2023-07-29T07:29:10;12.27;;;4.00;;
18084;SDS011;9169;44.492;11.372;2023-07-29T07:31:38;12.13;;;3.90;;
18084;SDS011;9169;44.492;11.372;2023-07-29T07:34:07;12.83;;;4.93;;
18084;SDS011;9169;44.492;11.372;2023-07-29T07:36:37;12.60;;;4.30;;
18084;SDS011;9169;44.492;11.372;2023-07-29T07:39:07;11.63;;;4.83;;
18084;SDS011;9169;44.492;11.372;2023-07-29T07:41:36;13.90;;;4.00;;
18084;SDS011;9169;44.492;11.372;2023-07-29T07:44:07;12.37;;;3.57;;
18084;SDS011;9169;44.492;11.372;2023-07-29T07:46:37;11.97;;;4.50;;
18084;SDS011;9169;44.492;11.372;2023-07-29T07:49:07;14.73;;;3.80;;
18084;SDS011;9169;44.492;11.372;2023-07-29T07:51:45;13.07;;;4.43;;
18084;SDS011;9169;44.492;11.372;2023-07-29T07:54:15;14.80;;;4.53;;
18084;SDS011;9169;44.492;11.372;2023-07-29T07:56:44;13.30;;;4.10;;
18084;SDS011;9169;44.492;11.372;2023-07-29T07:59:12;13.50;;;4.10;;
18084;SDS011;9169;44.492;11.372;2023-07-29T08:01:49;13.83;;;4.10;;
18084;SDS011;9169;44.492;11.372;2023-07-29T08:04:19;12.50;;;4.20;;
18084;SDS011;9169;44.492;11.372;2023-07-29T08:06:49;10.80;;;3.63;;
18084;SDS011;9169;44.492;11.372;2023-07-29T08:09:22;14.23;;;3.80;;
18084;SDS011;9169;44.492;11.372;2023-07-29T08:11:51;15.17;;;4.27;;
18084;SDS011;9169;44.492;11.372;2023-07-29T08:14:27;10.30;;;3.60;;
18084;SDS011;9169;44.492;11.372;2023-07-29T08:16:57;10.37;;;3.40;;
18084;SDS011;9169;44.492;11.372;2023-07-29T08:19:26;12.00;;;4.00;;
18084;SDS011;9169;44.492;11.372;2023-07-29T08:21:56;12.50;;;4.40;;
18084;SDS011;9169;44.492;11.372;2023-07-29T08:24:25;12.53;;;4.53;;
18084;SDS011;9169;44.492;11.372;2023-07-29T08:26:54;13.67;;;4.30;;
18084;SDS011;9169;44.492;11.372;2023-07-29T08:29:23;12.90;;;4.13;;
18084;SDS011;9169;44.492;11.372;2023-07-29T08:31:52;15.10;;;3.80;;
18084;SDS011;9169;44.492;11.372;2023-07-29T08:34:22;13.33;;;3.80;;
18084;SDS011;9169;44.492;11.372;2023-07-29T08:36:50;11.40;;;3.80;;
18084;SDS011;9169;44.492;11.372;2023-07-29T08:39:21;12.10;;;3.97;;
18084;SDS011;9169;44.492;11.372;2023-07-29T08:41:51;9.30;;;3.33;;
18084;SDS011;9169;44.492;11.372;2023-07-29T08:44:26;9.83;;;4.10;;
18084;SDS011;9169;44.492;11.372;2023-07-29T08:46:58;17.20;;;3.80;;
18084;SDS011;9169;44.492;11.372;2023-07-29T08:49:30;8.83;;;3.50;;
18084;SDS011;9169;44.492;11.372;2023-07-29T08:52:00;10.43;;;4.00;;
18084;SDS011;9169;44.492;11.372;2023-07-29T08:54:31;13.97;;;3.63;;
18084;SDS011;9169;44.492;11.372;2023-07-29T08:56:59;10.60;;;3.63;;
18084;SDS011;9169;44.492;11.372;2023-07-29T08:59:28;10.47;;;3.70;;
18084;SDS011;9169;44.492;11.372;2023-07-29T09:01:57;9.10;;;3.33;;
18084;SDS011;9169;44.492;11.372;2023-07-29T09:04:26;11.17;;;3.97;;
18084;SDS011;9169;44.492;11.372;2023-07-29T09:06:56;10.77;;;4.23;;
18084;SDS011;9169;44.492;11.372;2023-07-29T09:09:25;8.60;;;3.50;;
18084;SDS011;9169;44.492;11.372;2023-07-29T09:11:55;9.30;;;3.40;;
18084;SDS011;9169;44.492;11.372;2023-07-29T09:14:24;8.13;;;2.70;;
18084;SDS011;9169;44.492;11.372;2023-07-29T09:16:52;10.63;;;3.73;;
18084;SDS011;9169;44.492;11.372;2023-07-29T09:19:24;10.40;;;3.43;;
18084;SDS011;9169;44.492;11.372;2023-07-29T09:21:53;11.77;;;3.73;;
18084;SDS011;9169;44.492;11.372;2023-07-29T09:24:22;11.63;;;3.40;;
18084;SDS011;9169;44.492;11.372;2023-07-29T09:26:51;12.10;;;3.20;;
18084;SDS011;9169;44.492;11.372;2023-07-29T09:29:23;10.47;;;3.60;;
18084;SDS011;9169;44.492;11.372;2023-07-29T09:31:51;11.67;;;4.53;;
18084;SDS011;9169;44.492;11.372;2023-07-29T09:34:20;9.60;;;3.67;;
18084;SDS011;9169;44.492;11.372;2023-07-29T09:36:51;9.43;;;3.60;;
18084;SDS011;9169;44.492;11.372;2023-07-29T09:39:20;8.53;;;3.33;;
18084;SDS011;9169;44.492;11.372;2023-07-29T09:41:51;10.43;;;3.33;;
18084;SDS011;9169;44.492;11.372;2023-07-29T09:44:20;9.10;;;3.17;;
18084;SDS011;9169;44.492;11.372;2023-07-29T09:46:50;8.20;;;3.53;;
18084;SDS011;9169;44.492;11.372;2023-07-29T09:49:18;7.40;;;3.67;;
18084;SDS011;9169;44.492;11.372;2023-07-29T09:51:47;7.37;;;3.40;;
18084;SDS011;9169;44.492;11.372;2023-07-29T09:54:15;6.17;;;2.87;;
18084;SDS011;9169;44.492;11.372;2023-07-29T09:56:45;7.50;;;3.13;;
18084;SDS011;9169;44.492;11.372;2023-07-29T09:59:18;9.10;;;3.47;;
18084;SDS011;9169;44.492;11.372;2023-07-29T10:01:47;8.93;;;3.40;;
18084;SDS011;9169;44.492;11.372;2023-07-29T10:04:17;6.50;;;3.03;;
18084;SDS011;9169;44.492;11.372;2023-07-29T10:06:46;5.50;;;3.50;;
18084;SDS011;9169;44.492;11.372;2023-07-29T10:09:15;5.27;;;2.90;;
18084;SDS011;9169;44.492;11.372;2023-07-29T10:11:48;6.87;;;3.03;;
18084;SDS011;9169;44.492;11.372;2023-07-29T10:14:20;5.40;;;2.77;;
18084;SDS011;9169;44.492;11.372;2023-07-29T10:16:49;7.23;;;3.43;;
18084;SDS011;9169;44.492;11.372;2023-07-29T10:19:23;5.40;;;2.80;;
18084;SDS011;9169;44.492;11.372;2023-07-29T10:21:52;9.07;;;3.63;;
18084;SDS011;9169;44.492;11.372;2023-07-29T10:24:24;6.53;;;3.00;;
18084;SDS011;9169;44.492;11.372;2023-07-29T10:26:57;7.20;;;3.20;;
18084;SDS011;9169;44.492;11.372;2023-07-29T10:29:28;6.50;;;2.93;;
18084;SDS011;9169;44.492;11.372;2023-07-29T10:32:01;8.87;;;2.80;;
18084;SDS011;9169;44.492;11.372;2023-07-29T10:34:32;9.37;;;3.13;;
18084;SDS011;9169;44.492;11.372;2023-07-29T10:37:02;4.70;;;3.00;;
18084;SDS011;9169;44.492;11.372;2023-07-29T10:39:37;7.20;;;3.30;;
18084;SDS011;9169;44.492;11.372;2023-07-29T10:42:07;6.90;;;2.70;;
18084;SDS011;9169;44.492;11.372;2023-07-29T10:44:49;9.33;;;2.87;;
18084;SDS011;9169;44.492;11.372;2023-07-29T10:47:20;7.53;;;3.40;;
18084;SDS011;9169;44.492;11.372;2023-07-29T10:49:52;6.03;;;3.20;;
18084;SDS011;9169;44.492;11.372;2023-07-29T10:52:32;8.07;;;3.20;;
18084;SDS011;9169;44.492;11.372;2023-07-29T10:58:07;7.50;;;3.10;;
18084;SDS011;9169;44.492;11.372;2023-07-29T11:00:37;9.83;;;3.63;;
18084;SDS011;9169;44.492;11.372;2023-07-29T11:03:06;5.30;;;2.87;;
18084;SDS011;9169;44.492;11.372;2023-07-29T11:05:44;4.93;;;2.50;;
18084;SDS011;9169;44.492;11.372;2023-07-29T11:08:17;7.87;;;3.13;;
18084;SDS011;9169;44.492;11.372;2023-07-29T11:10:57;6.60;;;2.90;;
18084;SDS011;9169;44.492;11.372;2023-07-29T11:13:31;7.93;;;3.17;;
18084;SDS011;9169;44.492;11.372;2023-07-29T11:16:01;7.23;;;3.00;;
18084;SDS011;9169;44.492;11.372;2023-07-29T11:18:30;5.60;;;2.90;;
18084;SDS011;9169;44.492;11.372;2023-07-29T11:21:02;6.30;;;2.63;;
18084;SDS011;9169;44.492;11.372;2023-07-29T11:23:32;8.10;;;3.20;;
18084;SDS011;9169;44.492;11.372;2023-07-29T11:26:03;4.60;;;2.90;;
18084;SDS011;9169;44.492;11.372;2023-07-29T11:28:37;7.07;;;3.63;;
18084;SDS011;9169;44.492;11.372;2023-07-29T11:31:07;5.10;;;2.90;;
18084;SDS011;9169;44.492;11.372;2023-07-29T11:33:38;5.47;;;2.57;;
18084;SDS011;9169;44.492;11.372;2023-07-29T11:36:18;6.80;;;3.00;;
18084;SDS011;9169;44.492;11.372;2023-07-29T11:38:47;5.97;;;2.90;;
18084;SDS011;9169;44.492;11.372;2023-07-29T11:41:19;6.43;;;2.70;;
18084;SDS011;9169;44.492;11.372;2023-07-29T11:43:49;5.20;;;3.10;;
18084;SDS011;9169;44.492;11.372;2023-07-29T11:46:20;4.07;;;2.57;;
18084;SDS011;9169;44.492;11.372;2023-07-29T11:48:50;6.63;;;3.43;;
18084;SDS011;9169;44.492;11.372;2023-07-29T11:51:23;7.10;;;4.03;;
18084;SDS011;9169;44.492;11.372;2023-07-29T11:53:53;6.13;;;3.10;;
18084;SDS011;9169;44.492;11.372;2023-07-29T11:56:22;7.20;;;2.70;;
18084;SDS011;9169;44.492;11.372;2023-07-29T11:58:54;5.10;;;2.80;;
18084;SDS011;9169;44.492;11.372;2023-07-29T12:01:23;5.33;;;2.70;;
18084;SDS011;9169;44.492;11.372;2023-07-29T12:03:52;8.20;;;3.10;;
18084;SDS011;9169;44.492;11.372;2023-07-29T12:06:22;5.33;;;3.00;;
18084;SDS011;9169;44.492;11.372;2023-07-29T12:08:52;9.07;;;3.50;;
18084;SDS011;9169;44.492;11.372;2023-07-29T12:11:21;4.83;;;2.60;;
18084;SDS011;9169;44.492;11.372;2023-07-29T12:13:49;6.03;;;3.00;;
18084;SDS011;9169;44.492;11.372;2023-07-29T12:16:21;6.40;;;3.50;;
18084;SDS011;9169;44.492;11.372;2023-07-29T12:18:50;7.70;;;3.03;;
18084;SDS011;9169;44.492;11.372;2023-07-29T12:21:19;4.97;;;3.30;;
18084;SDS011;9169;44.492;11.372;2023-07-29T12:23:49;7.93;;;3.10;;
18084;SDS011;9169;44.492;11.372;2023-07-29T12:26:18;5.25;;;2.92;;
18084;SDS011;9169;44.492;11.372;2023-07-29T12:28:47;6.10;;;2.78;;
18084;SDS011;9169;44.492;11.372;2023-07-29T12:31:17;4.63;;;2.80;;
18084;SDS011;9169;44.492;11.372;2023-07-29T12:33:46;5.60;;;2.75;;
18084;SDS011;9169;44.492;11.372;2023-07-29T12:36:14;7.20;;;3.72;;
18084;SDS011;9169;44.492;11.372;2023-07-29T12:38:44;5.72;;;3.55;;
18084;SDS011;9169;44.492;11.372;2023-07-29T12:41:15;7.60;;;3.63;;
18084;SDS011;9169;44.492;11.372;2023-07-29T12:43:44;7.00;;;3.63;;
18084;SDS011;9169;44.492;11.372;2023-07-29T12:46:13;6.70;;;2.85;;
18084;SDS011;9169;44.492;11.372;2023-07-29T12:48:42;5.68;;;2.88;;
18084;SDS011;9169;44.492;11.372;2023-07-29T12:51:11;5.82;;;2.88;;
18084;SDS011;9169;44.492;11.372;2023-07-29T12:53:39;5.35;;;2.97;;
18084;SDS011;9169;44.492;11.372;2023-07-29T12:56:08;5.10;;;2.67;;
18084;SDS011;9169;44.492;11.372;2023-07-29T12:58:38;4.68;;;2.92;;
18084;SDS011;9169;44.492;11.372;2023-07-29T13:01:06;5.47;;;2.50;;
18084;SDS011;9169;44.492;11.372;2023-07-29T13:03:36;5.28;;;3.10;;
18084;SDS011;9169;44.492;11.372;2023-07-29T13:06:08;6.90;;;3.15;;
18084;SDS011;9169;44.492;11.372;2023-07-29T13:08:36;8.45;;;2.83;;
18084;SDS011;9169;44.492;11.372;2023-07-29T13:11:05;5.05;;;2.95;;
18084;SDS011;9169;44.492;11.372;2023-07-29T13:13:34;4.50;;;2.67;;
18084;SDS011;9169;44.492;11.372;2023-07-29T13:16:04;6.10;;;3.15;;
18084;SDS011;9169;44.492;11.372;2023-07-29T13:18:33;5.30;;;2.70;;
18084;SDS011;9169;44.492;11.372;2023-07-29T13:21:02;3.95;;;2.60;;
18084;SDS011;9169;44.492;11.372;2023-07-29T13:23:31;7.47;;;3.15;;
18084;SDS011;9169;44.492;11.372;2023-07-29T13:26:00;5.10;;;3.08;;
18084;SDS011;9169;44.492;11.372;2023-07-29T13:28:28;5.32;;;3.13;;
18084;SDS011;9169;44.492;11.372;2023-07-29T13:30:57;4.55;;;2.83;;
18084;SDS011;9169;44.492;11.372;2023-07-29T13:33:27;5.40;;;2.95;;
18084;SDS011;9169;44.492;11.372;2023-07-29T13:36:00;5.88;;;3.03;;
18084;SDS011;9169;44.492;11.372;2023-07-29T13:38:29;7.43;;;3.00;;
18084;SDS011;9169;44.492;11.372;2023-07-29T13:40:58;4.38;;;2.97;;
18084;SDS011;9169;44.492;11.372;2023-07-29T13:43:27;4.85;;;2.78;;
18084;SDS011;9169;44.492;11.372;2023-07-29T13:45:56;17.10;;;3.20;;
18084;SDS011;9169;44.492;11.372;2023-07-29T13:48:25;8.95;;;3.00;;
18084;SDS011;9169;44.492;11.372;2023-07-29T13:50:55;5.75;;;3.00;;
18084;SDS011;9169;44.492;11.372;2023-07-29T13:53:24;4.82;;;2.95;;
18084;SDS011;9169;44.492;11.372;2023-07-29T13:55:53;7.60;;;3.53;;
18084;SDS011;9169;44.492;11.372;2023-07-29T13:58:21;5.53;;;2.90;;
18084;SDS011;9169;44.492;11.372;2023-07-29T14:00:50;9.10;;;3.42;;
18084;SDS011;9169;44.492;11.372;2023-07-29T14:03:19;5.78;;;2.85;;
18084;SDS011;9169;44.492;11.372;2023-07-29T14:05:48;5.25;;;3.05;;
18084;SDS011;9169;44.492;11.372;2023-07-29T14:08:18;5.40;;;2.88;;
18084;SDS011;9169;44.492;11.372;2023-07-29T14:10:47;6.15;;;3.05;;
18084;SDS011;9169;44.492;11.372;2023-07-29T14:13:16;7.72;;;3.00;;
18084;SDS011;9169;44.492;11.372;2023-07-29T14:15:45;6.13;;;3.05;;
18084;SDS011;9169;44.492;11.372;2023-07-29T14:18:14;6.13;;;3.03;;
18084;SDS011;9169;44.492;11.372;2023-07-29T14:20:42;8.30;;;3.17;;
18084;SDS011;9169;44.492;11.372;2023-07-29T14:23:11;8.18;;;3.20;;
18084;SDS011;9169;44.492;11.372;2023-07-29T14:25:41;4.95;;;3.25;;
18084;SDS011;9169;44.492;11.372;2023-07-29T14:28:10;4.82;;;2.92;;
18084;SDS011;9169;44.492;11.372;2023-07-29T14:30:38;6.18;;;3.30;;
18084;SDS011;9169;44.492;11.372;2023-07-29T14:33:07;8.32;;;3.28;;
18084;SDS011;9169;44.492;11.372;2023-07-29T14:35:38;5.18;;;3.08;;
18084;SDS011;9169;44.492;11.372;2023-07-29T14:38:07;6.78;;;3.70;;
18084;SDS011;9169;44.492;11.372;2023-07-29T14:40:36;10.52;;;3.42;;
18084;SDS011;9169;44.492;11.372;2023-07-29T14:43:06;6.50;;;3.30;;
18084;SDS011;9169;44.492;11.372;2023-07-29T14:45:35;5.38;;;3.15;;
18084;SDS011;9169;44.492;11.372;2023-07-29T14:48:04;7.03;;;3.47;;
18084;SDS011;9169;44.492;11.372;2023-07-29T14:50:34;5.93;;;3.40;;
18084;SDS011;9169;44.492;11.372;2023-07-29T14:53:03;5.22;;;3.08;;
18084;SDS011;9169;44.492;11.372;2023-07-29T14:55:32;7.18;;;3.42;;